createdAt,value
2023-02-22T00:00:27.526Z,54.6
2023-02-22T00:05:27.167Z,44.6
2023-02-22T00:10:27.169Z,77.0
2023-02-22T00:15:27.610Z,59.7
2023-02-22T00:20:27.187Z,43.1
2023-02-22T00:25:27.161Z,89.0
2023-02-22T00:30:27.467Z,48.9
2023-02-22T00:35:27.013Z,36.9
2023-02-22T00:40:27.168Z,33.3
2023-02-22T00:45:27.200Z,27.5
2023-02-22T00:50:27.076Z,36.2
2023-02-22T00:55:27.139Z,90.5
2023-02-22T01:00:27.055Z,61.4
2023-02-22T01:05:27.237Z,40.4
2023-02-22T01:10:27.064Z,41.3
2023-02-22T01:15:27.040Z,28.7
2023-02-22T01:20:27.274Z,25.2
2023-02-22T01:25:27.037Z,33.9
2023-02-22T01:30:27.137Z,53.6
2023-02-22T01:35:27.824Z,43.0
2023-02-22T01:40:27.046Z,170.5
2023-02-22T01:45:26.899Z,50.8
2023-02-22T01:50:27.215Z,48.3
2023-02-22T02:00:27.053Z,64.1
2023-02-22T02:05:26.972Z,25.1
2023-02-22T02:10:27.162Z,27.3
2023-02-22T02:15:27.074Z,25.2
2023-02-22T02:20:27.224Z,22.9
2023-02-22T02:25:26.824Z,25.2
2023-02-22T02:30:26.995Z,27.0
2023-02-22T02:35:27.864Z,29.1
2023-02-22T02:40:26.940Z,114.0
2023-02-22T02:45:26.956Z,34.2
2023-02-22T02:50:27.068Z,31.0
2023-02-22T02:55:26.900Z,43.3
2023-02-22T03:00:26.896Z,35.4
2023-02-22T03:05:26.722Z,33.5
2023-02-22T03:10:26.853Z,21.0
2023-02-22T03:15:26.886Z,25.9
2023-02-22T03:20:26.944Z,23.7
2023-02-22T03:25:26.902Z,23.3
2023-02-22T03:30:26.936Z,21.0
2023-02-22T03:35:27.009Z,19.5
2023-02-22T03:40:26.780Z,25.3
2023-02-22T03:45:26.756Z,25.4
2023-02-22T03:50:26.867Z,21.0
2023-02-22T03:55:26.761Z,30.6
2023-02-22T04:00:26.687Z,26.3
2023-02-22T04:05:26.880Z,19.6
2023-02-22T04:10:26.669Z,73.8
2023-02-22T04:15:26.766Z,42.3
2023-02-22T04:20:26.835Z,68.1
2023-02-22T04:25:26.588Z,29.1
2023-02-22T04:30:26.770Z,36.7
2023-02-22T04:35:26.772Z,26.3
2023-02-22T04:40:26.592Z,59.0
2023-02-22T04:45:26.638Z,33.1
2023-02-22T04:50:26.834Z,47.8
2023-02-22T04:55:26.581Z,54.8
2023-02-22T05:00:26.601Z,43.0
2023-02-22T05:05:27.014Z,44.3
2023-02-22T05:10:26.515Z,39.9
2023-02-22T05:15:26.519Z,37.7
2023-02-22T05:20:26.862Z,32.1
2023-02-22T05:25:26.675Z,35.2
2023-02-22T05:30:26.695Z,39.1
2023-02-22T05:35:26.751Z,42.4
2023-02-22T05:40:26.632Z,42.6
2023-02-22T05:45:26.634Z,42.3
2023-02-22T05:50:26.703Z,45.1
2023-02-22T05:55:26.598Z,37.3
2023-02-22T06:00:26.582Z,52.3
2023-02-22T06:05:49.510Z,42.8
2023-02-22T06:10:26.431Z,57.6
2023-02-22T06:15:26.420Z,53.2
2023-02-22T06:20:26.434Z,40.0
2023-02-22T06:25:26.433Z,41.6
2023-02-22T06:30:26.712Z,63.5
2023-02-22T06:35:26.427Z,84.4
2023-02-22T06:40:27.197Z,68.5
2023-02-22T06:45:26.462Z,112.2
2023-02-22T06:50:26.420Z,97.6
2023-02-22T06:55:26.379Z,54.3
2023-02-22T07:00:26.460Z,63.6
2023-02-22T07:05:26.343Z,94.1
2023-02-22T07:10:27.436Z,68.0
2023-02-22T07:15:26.928Z,47.7
2023-02-22T07:20:26.344Z,34.7
2023-02-22T07:25:26.405Z,46.6
2023-02-22T07:30:26.721Z,30.3
2023-02-22T07:35:26.407Z,24.3
2023-02-22T07:40:26.295Z,30.3
2023-02-22T07:45:26.479Z,23.0
2023-02-22T07:50:26.347Z,19.2
2023-02-22T07:55:26.248Z,23.2
2023-02-22T08:00:27.024Z,23.8
2023-02-22T08:05:26.201Z,19.3
2023-02-22T08:10:26.266Z,14.6
2023-02-22T08:15:26.444Z,14.1
2023-02-22T08:20:26.390Z,10.5
2023-02-22T08:25:26.219Z,24.0
2023-02-22T08:30:26.220Z,14.9
2023-02-22T08:35:26.472Z,19.6
2023-02-22T08:40:26.228Z,13.1
2023-02-22T08:45:26.175Z,10.2
2023-02-22T08:50:26.156Z,27.1
2023-02-22T08:55:26.180Z,16.6
2023-02-22T09:00:26.526Z,10.0
2023-02-22T09:05:26.402Z,11.0
2023-02-22T09:10:26.097Z,11.2
2023-02-22T09:15:26.111Z,13.9
2023-02-22T09:20:26.096Z,10.0
2023-02-22T09:25:26.050Z,7.5
2023-02-22T09:30:26.316Z,9.7
2023-02-22T09:35:26.244Z,11.0
2023-02-22T09:45:26.654Z,10.9
2023-02-22T09:50:26.134Z,10.3
2023-02-22T09:55:26.136Z,10.9
2023-02-22T10:00:26.327Z,10.4
2023-02-22T10:05:26.173Z,16.4
2023-02-22T10:10:26.081Z,14.1
2023-02-22T10:15:26.323Z,10.4
2023-02-22T10:20:26.183Z,18.6
2023-02-22T10:25:26.245Z,20.4
2023-02-22T10:30:26.354Z,32.3
2023-02-22T10:35:26.332Z,14.1
2023-02-22T10:40:26.028Z,15.6
2023-02-22T10:45:26.404Z,23.9
2023-02-22T10:50:26.334Z,21.2
2023-02-22T10:55:25.992Z,11.0
2023-02-22T11:00:25.967Z,30.3
2023-02-22T11:05:25.985Z,26.2
2023-02-22T11:10:26.009Z,14.9
2023-02-22T11:15:26.169Z,24.4
2023-02-22T11:20:26.098Z,13.1
2023-02-22T11:25:25.978Z,10.6
2023-02-22T11:30:26.228Z,21.8
2023-02-22T11:35:25.941Z,21.9
2023-02-22T11:40:25.933Z,20.3
2023-02-22T11:45:26.158Z,25.8
2023-02-22T11:50:25.896Z,15.3
2023-02-22T11:55:41.181Z,15.8
2023-02-22T12:00:26.116Z,17.3
2023-02-22T12:05:25.951Z,12.0
2023-02-22T12:10:26.172Z,22.6
2023-02-22T12:15:25.951Z,11.8
2023-02-22T12:20:25.840Z,53.8
2023-02-22T12:25:25.825Z,24.1
2023-02-22T12:30:26.643Z,16.4
2023-02-22T12:35:25.804Z,106.0
2023-02-22T12:40:25.786Z,36.4
2023-02-22T12:45:26.063Z,51.3
2023-02-22T12:50:25.774Z,16.4
2023-02-22T12:55:25.862Z,14.6
2023-02-22T13:00:26.042Z,19.1
2023-02-22T13:05:26.178Z,37.3
2023-02-22T13:10:25.968Z,35.3
2023-02-22T13:15:25.722Z,51.9
2023-02-22T13:20:25.759Z,14.8
2023-02-22T13:25:25.838Z,12.4
2023-02-22T13:30:25.897Z,16.0
2023-02-22T13:35:25.686Z,10.8
2023-02-22T13:40:25.711Z,10.7
2023-02-22T13:45:25.944Z,21.3
2023-02-22T13:50:25.672Z,24.6
2023-02-22T13:55:25.882Z,24.7
2023-02-22T14:00:25.917Z,16.4
2023-02-22T14:05:25.798Z,12.2
2023-02-22T14:10:25.646Z,40.1
2023-02-22T14:15:30.181Z,30.7
2023-02-22T14:20:25.686Z,32.7
2023-02-22T14:25:28.417Z,32.2
2023-02-22T14:30:26.501Z,41.6
2023-02-22T14:35:30.114Z,125.6
2023-02-22T14:40:25.827Z,23.3
2023-02-22T14:45:26.891Z,33.7
2023-02-22T14:50:25.768Z,74.8
2023-02-22T14:55:25.625Z,21.3
2023-02-22T15:00:26.035Z,14.8
2023-02-22T15:05:25.560Z,10.9
2023-02-22T15:10:25.585Z,13.5
2023-02-22T15:15:25.709Z,11.4
2023-02-22T15:20:25.570Z,14.2
2023-02-22T15:25:25.462Z,15.0
2023-02-22T15:30:25.548Z,14.6
2023-02-22T15:35:25.418Z,14.8
2023-02-22T15:40:25.475Z,16.1
2023-02-22T15:45:26.135Z,13.7
2023-02-22T15:50:25.536Z,12.2
2023-02-22T15:55:25.844Z,38.9
2023-02-22T16:00:25.430Z,20.5
2023-02-22T16:05:25.397Z,22.6
2023-02-22T16:10:25.404Z,26.0
2023-02-22T16:15:25.582Z,25.7
2023-02-22T16:20:25.404Z,22.9
2023-02-22T16:25:25.364Z,23.1
2023-02-22T16:30:25.997Z,30.0
2023-02-22T16:35:26.197Z,25.1
2023-02-22T16:40:31.457Z,158.7
2023-02-22T16:45:25.352Z,39.5
2023-02-22T16:50:26.717Z,61.9
2023-02-22T16:55:25.272Z,92.9
2023-02-22T17:00:25.258Z,28.8
2023-02-22T17:05:25.918Z,36.6
2023-02-22T17:10:25.316Z,36.7
2023-02-22T17:15:25.342Z,81.4
2023-02-22T17:20:25.466Z,48.8
2023-02-22T17:25:25.434Z,37.8
2023-02-22T17:30:25.332Z,40.3
2023-02-22T17:35:25.794Z,68.8
2023-02-22T17:40:25.457Z,54.8
2023-02-22T17:45:25.493Z,49.0
2023-02-22T17:50:25.508Z,38.5
2023-02-22T17:55:25.298Z,36.1
2023-02-22T18:00:25.334Z,49.9
2023-02-22T18:05:25.976Z,47.5
2023-02-22T18:10:27.459Z,130.1
2023-02-22T18:15:25.141Z,107.3
2023-02-22T18:20:26.016Z,96.5
2023-02-22T18:25:25.505Z,101.4
2023-02-22T18:30:25.118Z,88.3
2023-02-22T18:35:25.283Z,73.0
2023-02-22T18:40:29.325Z,63.6
2023-02-22T18:45:27.678Z,65.0
2023-02-22T18:50:31.978Z,51.3
2023-02-22T18:55:31.972Z,52.0
2023-02-22T19:00:32.142Z,38.9
2023-02-22T19:05:31.964Z,39.7
2023-02-22T19:10:31.999Z,51.1
2023-02-22T19:15:32.142Z,54.8
2023-02-22T19:20:32.361Z,54.9
2023-02-22T19:25:32.047Z,61.5
2023-02-22T19:30:32.246Z,78.3
2023-02-22T19:35:31.911Z,80.2
2023-02-22T19:40:32.095Z,88.1
2023-02-22T19:45:32.085Z,93.8
2023-02-22T19:50:31.947Z,93.6
2023-02-22T19:55:39.670Z,90.0
2023-02-22T20:00:31.878Z,86.6
2023-02-22T20:05:32.914Z,88.5
2023-02-22T20:10:32.589Z,101.6
2023-02-22T20:15:31.819Z,100.2
2023-02-22T20:20:31.864Z,83.6
2023-02-22T20:25:32.426Z,71.8
2023-02-22T20:30:32.141Z,62.1
2023-02-22T20:35:31.779Z,74.0
2023-02-22T20:40:32.335Z,70.4
2023-02-22T20:45:32.052Z,73.0
2023-02-22T20:50:31.792Z,74.6
2023-02-22T20:55:32.616Z,67.0
2023-02-22T21:00:31.774Z,65.2
2023-02-22T21:05:33.388Z,76.2
2023-02-22T21:10:31.971Z,75.6
2023-02-22T21:15:31.781Z,68.0
2023-02-22T21:20:31.771Z,69.3
2023-02-22T21:25:31.834Z,69.8
2023-02-22T21:30:32.168Z,75.1
2023-02-22T21:35:31.821Z,81.2
2023-02-22T21:40:31.664Z,75.9
2023-02-22T21:45:31.678Z,81.0
2023-02-22T21:50:31.698Z,83.4
2023-02-22T21:55:31.771Z,84.4
2023-02-22T22:00:31.701Z,85.7
2023-02-22T22:05:31.737Z,92.6
2023-02-22T22:10:31.885Z,82.8
2023-02-22T22:15:31.830Z,86.6
2023-02-22T22:20:31.570Z,78.9
2023-02-22T22:25:31.639Z,76.8
2023-02-22T22:30:31.787Z,61.8
2023-02-22T22:35:31.609Z,61.1
2023-02-22T22:40:31.587Z,84.6
2023-02-22T22:45:31.772Z,67.1
2023-02-22T22:50:31.651Z,47.2
2023-02-22T22:55:31.522Z,33.8
2023-02-22T23:00:31.723Z,36.7
2023-02-22T23:05:31.524Z,29.1
2023-02-22T23:10:31.520Z,27.7
2023-02-22T23:15:31.702Z,27.2
2023-02-22T23:20:31.471Z,24.8
2023-02-22T23:25:31.491Z,21.9
2023-02-22T23:30:31.743Z,24.0
2023-02-22T23:35:31.485Z,20.7
2023-02-22T23:40:32.596Z,18.9
2023-02-22T23:45:31.547Z,21.8
2023-02-22T23:50:31.452Z,19.7
2023-02-22T23:55:31.441Z,21.5
